Time;durP1;ratioP1;P1;durP2;ratioP2;P2;SDS_P1;SDS_P2;PMS_P1;PMS_P2;Temp;Humidity;BMP_temperature;BMP_pressure;BME280_temperature;BME280_humidity;BME280_pressure;Samples;Min_cycle;Max_cycle;Signal;HPM_P1;HPM_P2
2023/06/12 00:00:03;;;;;;;8.18;7.25;;;;;;;17.84;82.63;94358.44;5112926;28;20203;-71
2023/06/12 00:02:31;;;;;;;9.70;7.75;;;;;;;17.75;82.59;94362.50;5113084;28;20212;-70
2023/06/12 00:04:59;;;;;;;7.82;7.13;;;;;;;17.67;82.12;94366.56;5113732;28;20275;-71
2023/06/12 00:07:31;;;;;;;8.57;7.15;;;;;;;17.67;82.88;94363.78;5113766;28;20268;-71
2023/06/12 00:09:58;;;;;;;7.63;6.93;;;;;;;17.66;83.33;94369.78;5113627;28;20548;-71
2023/06/12 00:12:25;;;;;;;7.43;6.72;;;;;;;17.66;82.50;94372.56;5112999;28;20191;-71
2023/06/12 00:14:51;;;;;;;7.50;6.30;;;;;;;17.67;82.57;94372.16;5114007;28;20194;-71
2023/06/12 00:17:18;;;;;;;9.95;6.88;;;;;;;17.72;82.11;94373.69;5114193;28;20192;-71
2023/06/12 00:19:46;;;;;;;7.38;6.75;;;;;;;17.70;82.64;94376.91;5117784;28;20192;-71
2023/06/12 00:22:14;;;;;;;8.18;6.85;;;;;;;17.64;82.68;94363.81;5117377;28;20647;-71
2023/06/12 00:24:44;;;;;;;8.65;7.07;;;;;;;17.61;82.99;94364.66;5116315;28;20203;-71
2023/06/12 00:27:12;;;;;;;7.47;6.72;;;;;;;17.60;83.12;94360.28;5117605;28;20184;-71
2023/06/12 00:29:39;;;;;;;9.10;6.55;;;;;;;17.61;83.44;94350.69;5117216;28;20195;-71
2023/06/12 00:32:07;;;;;;;8.13;7.00;;;;;;;17.60;83.18;94349.13;5117577;28;20184;-71
2023/06/12 00:34:35;;;;;;;7.38;6.25;;;;;;;17.60;83.00;94351.91;5117331;28;20653;-71
2023/06/12 00:37:03;;;;;;;10.52;6.90;;;;;;;17.63;83.19;94351.09;5117721;28;20265;-71
2023/06/12 00:39:30;;;;;;;7.45;6.80;;;;;;;17.62;83.46;94349.53;5117365;28;20180;-71
2023/06/12 00:42:00;;;;;;;7.75;7.03;;;;;;;17.59;83.91;94359.50;5117336;28;20199;-71
2023/06/12 00:44:28;;;;;;;8.55;6.18;;;;;;;17.59;83.86;94356.72;5117337;28;20184;-72
2023/06/12 00:46:56;;;;;;;7.07;6.43;;;;;;;17.61;83.54;94361.84;5117012;28;20248;-71
2023/06/12 00:49:23;;;;;;;7.25;6.38;;;;;;;17.61;83.04;94364.66;5116250;28;20210;-70
2023/06/12 00:51:52;;;;;;;7.95;6.97;;;;;;;17.60;83.21;94368.66;5117113;28;20192;-71
2023/06/12 00:54:19;;;;;;;7.97;6.07;;;;;;;17.61;83.46;94361.84;5117241;28;20180;-71
2023/06/12 00:56:45;;;;;;;7.75;6.65;;;;;;;17.61;83.07;94359.06;5117094;28;20205;-71
2023/06/12 00:59:16;;;;;;;10.05;6.85;;;;;;;17.59;83.00;94358.72;5115960;28;20196;-71
2023/06/12 01:01:43;;;;;;;7.00;5.68;;;;;;;17.58;83.10;94368.28;5116661;28;20253;-70
2023/06/12 01:04:10;;;;;;;6.28;5.68;;;;;;;17.50;82.48;94361.97;5116943;28;20203;-70
2023/06/12 01:06:42;;;;;;;6.78;5.70;;;;;;;17.43;82.36;94357.28;5116551;28;20485;-71
2023/06/12 01:09:19;;;;;;;7.70;5.78;;;;;;;17.49;82.62;94358.41;5115752;28;20203;-71
2023/06/12 01:11:46;;;;;;;6.20;5.55;;;;;;;17.49;82.39;94357.59;5115837;28;20199;-70
2023/06/12 01:14:17;;;;;;;6.35;5.80;;;;;;;17.43;82.33;94356.47;5116701;28;20198;-70
2023/06/12 01:16:45;;;;;;;5.82;5.32;;;;;;;17.41;82.67;94356.09;5115740;28;20206;-71
2023/06/12 01:19:12;;;;;;;9.05;5.68;;;;;;;17.38;82.70;94349.34;5115559;28;20188;-71
2023/06/12 01:21:40;;;;;;;6.22;5.22;;;;;;;17.34;82.87;94359.75;5115697;28;20188;-71
2023/06/12 01:24:28;;;;;;;6.85;5.78;;;;;;;17.29;82.93;94349.84;5115195;28;20228;-71
2023/06/12 01:27:16;;;;;;;7.88;5.93;;;;;;;17.33;83.28;94352.59;5116605;28;20180;-71
2023/06/12 01:30:24;;;;;;;7.22;6.03;;;;;;;17.36;83.27;94345.41;5114961;28;20195;-70
2023/06/12 01:32:52;;;;;;;6.55;5.95;;;;;;;17.36;82.98;94356.53;5108224;28;20204;-71
2023/06/12 01:35:23;;;;;;;6.55;5.93;;;;;;;17.32;83.04;94354.59;5116342;28;20195;-71
2023/06/12 01:37:54;;;;;;;8.05;7.25;;;;;;;17.31;82.55;94350.22;5115078;28;20200;-71
2023/06/12 01:40:23;;;;;;;6.43;5.82;;;;;;;17.33;82.92;94355.41;5116153;28;20187;-71
2023/06/12 01:42:50;;;;;;;6.25;5.68;;;;;;;17.37;82.90;94350.56;5115845;28;20264;-70
2023/06/12 01:45:17;;;;;;;8.55;6.00;;;;;;;17.39;82.89;94355.72;5114804;28;20199;-70
2023/06/12 01:47:44;;;;;;;6.55;5.95;;;;;;;17.44;83.44;94349.72;5115159;28;20252;-70
2023/06/12 01:50:14;;;;;;;7.55;6.10;;;;;;;17.49;83.10;94357.59;5115139;28;20209;-70
2023/06/12 01:52:42;;;;;;;6.45;5.85;;;;;;;17.48;83.00;94354.03;5115902;28;20478;-70
2023/06/12 01:55:13;;;;;;;6.13;5.63;;;;;;;17.48;82.61;94356.03;5114981;28;20530;-70
2023/06/12 01:57:40;;;;;;;6.75;5.95;;;;;;;17.45;82.96;94362.44;5115825;28;20211;-71
2023/06/12 02:00:09;;;;;;;8.98;5.50;;;;;;;17.40;82.93;94368.47;5115902;28;20187;-70
2023/06/12 02:02:36;;;;;;;6.90;6.28;;;;;;;17.40;83.22;94363.69;5115667;28;20187;-71
2023/06/12 02:05:07;;;;;;;8.85;6.20;;;;;;;17.45;83.68;94366.00;5114322;28;20199;-71
2023/06/12 02:07:35;;;;;;;8.02;6.40;;;;;;;17.44;83.31;94363.66;5114892;28;20195;-70
2023/06/12 02:10:02;;;;;;;6.97;6.28;;;;;;;17.43;83.31;94356.47;5115687;28;20180;-70
2023/06/12 02:12:30;;;;;;;6.47;5.88;;;;;;;17.44;83.43;94364.44;5114334;28;20196;-71
2023/06/12 02:14:59;;;;;;;7.25;6.55;;;;;;;17.45;83.51;94365.22;5115633;28;20238;-70
2023/06/12 02:17:26;;;;;;;7.70;6.90;;;;;;;17.44;83.54;94366.44;5115181;28;20595;-71
2023/06/12 02:19:54;;;;;;;6.60;6.00;;;;;;;17.42;83.52;94358.47;5115418;28;20191;-71
2023/06/12 02:22:23;;;;;;;7.07;6.47;;;;;;;17.48;83.68;94364.41;5114433;28;20256;-70
2023/06/12 02:24:53;;;;;;;8.05;6.32;;;;;;;17.50;83.47;94368.38;5115080;28;20235;-70
2023/06/12 02:27:20;;;;;;;7.28;6.53;;;;;;;17.52;83.73;94370.72;5114022;28;20206;-70
2023/06/12 02:29:47;;;;;;;8.07;7.28;;;;;;;17.55;83.54;94364.31;5114290;28;20199;-71
2023/06/12 02:32:15;;;;;;;7.30;6.57;;;;;;;17.56;83.41;94374.25;5114367;28;20203;-70
2023/06/12 02:34:44;;;;;;;10.07;7.57;;;;;;;17.54;82.80;94373.91;5115175;28;20199;-70
2023/06/12 02:37:11;;;;;;;7.30;6.60;;;;;;;17.51;82.86;94375.50;5114860;28;20190;-71
2023/06/12 02:39:38;;;;;;;7.93;6.90;;;;;;;17.45;83.10;94377.16;5114764;28;20203;-71
2023/06/12 02:42:08;;;;;;;8.18;7.38;;;;;;;17.44;82.78;94377.59;5113733;28;20199;-71
2023/06/12 02:44:35;;;;;;;8.65;7.85;;;;;;;17.44;83.11;94375.59;5114510;28;20582;-71
2023/06/12 02:47:04;;;;;;;8.43;7.72;;;;;;;17.49;82.82;94379.91;5114662;28;20188;-71
2023/06/12 02:49:31;;;;;;;8.70;7.55;;;;;;;17.51;82.80;94383.09;5114156;28;20207;-71
2023/06/12 02:51:59;;;;;;;8.63;7.72;;;;;;;17.51;82.92;94388.66;5113794;28;20196;-71
2023/06/12 02:54:28;;;;;;;8.48;7.75;;;;;;;17.49;82.77;94391.06;5113836;28;20195;-72
2023/06/12 02:56:55;;;;;;;11.88;7.35;;;;;;;17.46;82.80;94391.88;5115149;28;20196;-70
2023/06/12 02:59:25;;;;;;;8.35;7.20;;;;;;;17.42;83.49;94397.50;5114796;28;20188;-70
2023/06/12 03:01:54;;;;;;;9.20;8.32;;;;;;;17.40;83.83;94396.34;5113501;28;20196;-71
2023/06/12 03:04:22;;;;;;;8.95;7.30;;;;;;;17.35;83.68;94394.78;5113602;28;20219;-71
2023/06/12 03:06:52;;;;;;;8.65;7.85;;;;;;;17.32;83.94;94392.84;5113487;28;20287;-70
2023/06/12 03:09:19;;;;;;;8.07;7.28;;;;;;;17.31;83.74;94392.03;5114580;28;20194;-70
2023/06/12 03:11:47;;;;;;;8.05;7.20;;;;;;;17.31;83.08;94396.81;5113686;28;20191;-71
2023/06/12 03:14:14;;;;;;;8.55;7.68;;;;;;;17.30;83.07;94398.81;5114444;28;20192;-71
2023/06/12 03:16:42;;;;;;;8.68;6.82;;;;;;;17.31;83.07;94397.59;5113146;28;20199;-71
2023/06/12 03:19:09;;;;;;;7.90;7.18;;;;;;;17.36;83.26;94401.97;5113559;28;20207;-71
2023/06/12 03:21:37;;;;;;;8.43;7.63;;;;;;;17.37;82.57;94406.31;5114203;28;20176;-71
2023/06/12 03:24:05;;;;;;;9.63;7.78;;;;;;;17.41;82.67;94411.84;5113376;28;20211;-71
2023/06/12 03:26:31;;;;;;;7.47;6.80;;;;;;;17.42;82.20;94407.84;5112845;28;20235;-71
2023/06/12 03:28:59;;;;;;;7.53;6.82;;;;;;;17.41;81.75;94409.06;5114344;28;20183;-71
2023/06/12 03:31:26;;;;;;;8.35;7.55;;;;;;;17.42;81.88;94400.28;5113330;28;20203;-71
2023/06/12 03:33:58;;;;;;;7.82;7.00;;;;;;;17.43;81.99;94404.66;5113322;28;20195;-71
2023/06/12 03:36:25;;;;;;;7.05;6.35;;;;;;;17.44;82.32;94399.88;5114378;28;20188;-71
2023/06/12 03:38:52;;;;;;;7.63;7.03;;;;;;;17.42;81.65;94402.28;5114367;28;20179;-71
2023/06/12 03:41:23;;;;;;;9.18;6.82;;;;;;;17.44;82.12;94405.47;5113127;28;20261;-70
2023/06/12 03:43:50;;;;;;;7.53;6.93;;;;;;;17.44;81.62;94409.03;5113241;28;20203;-72
2023/06/12 03:46:17;;;;;;;8.02;7.35;;;;;;;17.46;81.50;94406.59;5113182;28;20199;-71
2023/06/12 03:48:44;;;;;;;7.65;6.93;;;;;;;17.45;81.41;94395.88;5114228;28;20234;-71
2023/06/12 03:51:14;;;;;;;9.07;7.55;;;;;;;17.44;81.82;94399.88;5113504;28;20191;-72
2023/06/12 03:53:41;;;;;;;8.70;7.20;;;;;;;17.41;81.15;94395.91;5117045;28;20640;-71
2023/06/12 03:56:08;;;;;;;8.98;8.13;;;;;;;17.41;80.66;94386.78;5118007;28;20253;-71
2023/06/12 03:58:36;;;;;;;10.70;8.20;;;;;;;17.40;80.50;94388.78;5118274;28;20202;-71
2023/06/12 04:01:03;;;;;;;8.13;7.45;;;;;;;17.43;80.85;94387.13;5117187;28;20570;-72
2023/06/12 04:03:30;;;;;;;7.75;7.03;;;;;;;17.45;81.21;94390.31;5117062;28;20207;-71
2023/06/12 04:05:57;;;;;;;9.35;7.35;;;;;;;17.50;81.57;94395.41;5117824;28;20206;-72
2023/06/12 04:08:29;;;;;;;7.57;6.93;;;;;;;17.55;81.35;94390.19;5116935;28;20211;-72
2023/06/12 04:10:57;;;;;;;8.60;7.70;;;;;;;17.59;80.95;94400.53;5117179;28;20249;-72
2023/06/12 04:13:25;;;;;;;8.75;7.78;;;;;;;17.62;80.92;94394.91;5118088;28;20287;-74
2023/06/12 04:15:52;;;;;;;9.77;7.80;;;;;;;17.64;80.79;94400.06;5118015;28;20188;-73
2023/06/12 04:18:20;;;;;;;8.55;7.38;;;;;;;17.64;80.70;94403.66;5116923;28;20196;-74
2023/06/12 04:20:46;;;;;;;9.38;7.78;;;;;;;17.64;80.78;94397.28;5116979;28;20191;-74
2023/06/12 04:23:16;;;;;;;8.10;7.22;;;;;;;17.66;81.48;94397.66;5117619;28;20179;-74
2023/06/12 04:25:45;;;;;;;8.95;7.70;;;;;;;17.66;81.07;94398.47;5117521;28;20242;-74
2023/06/12 04:28:13;;;;;;;23.27;20.85;;;;;;;17.70;81.11;94401.22;5117774;28;20218;-74
2023/06/12 04:30:45;;;;;;;27.15;24.60;;;;;;;17.71;81.08;94400.00;5116512;28;20200;-78
2023/06/12 04:33:14;;;;;;;22.50;20.48;;;;;;;17.70;80.78;94401.22;5116180;28;20211;-71
2023/06/12 04:35:46;;;;;;;21.55;19.65;;;;;;;17.70;80.55;94399.22;5116657;28;20254;-71
2023/06/12 04:38:13;;;;;;;15.00;13.50;;;;;;;17.70;80.40;94396.41;5116581;28;20226;-70
2023/06/12 04:40:44;;;;;;;13.70;12.30;;;;;;;17.74;80.42;94399.16;5116594;28;20297;-74
2023/06/12 04:43:19;;;;;;;12.18;10.88;;;;;;;17.75;79.50;94397.94;5117072;28;20245;-71
2023/06/12 04:45:46;;;;;;;14.30;10.95;;;;;;;17.75;79.59;94395.97;5117806;28;20197;-70
2023/06/12 04:48:13;;;;;;;11.70;10.70;;;;;;;17.76;79.67;94394.78;5117460;28;20298;-71
2023/06/12 04:50:40;;;;;;;11.80;10.55;;;;;;;17.79;79.78;94396.75;5116977;28;20195;-71
2023/06/12 04:53:07;;;;;;;12.23;11.05;;;;;;;17.83;79.32;94393.09;5117476;28;20195;-70
2023/06/12 04:55:34;;;;;;;12.40;11.20;;;;;;;17.83;79.00;94390.31;5117951;28;20184;-71
2023/06/12 04:58:03;;;;;;;12.95;11.68;;;;;;;17.84;78.74;94389.94;5117420;28;20214;-71
2023/06/12 05:00:34;;;;;;;14.65;13.23;;;;;;;17.85;78.34;94393.50;5117361;28;20206;-71
2023/06/12 05:03:02;;;;;;;16.23;14.65;;;;;;;17.87;78.42;94391.88;5115245;28;20199;-70
2023/06/12 05:05:29;;;;;;;14.02;12.40;;;;;;;17.89;78.53;94395.03;5116046;28;20219;-71
2023/06/12 05:07:57;;;;;;;12.85;11.52;;;;;;;17.93;79.39;94398.56;5116645;28;20607;-70
2023/06/12 05:10:24;;;;;;;12.20;11.10;;;;;;;17.97;79.30;94398.53;5116035;28;20221;-70
2023/06/12 05:12:51;;;;;;;11.20;10.13;;;;;;;17.98;78.97;94402.91;5115991;28;20188;-70
2023/06/12 05:15:17;;;;;;;10.98;9.95;;;;;;;18.00;78.97;94394.91;5116309;28;20615;-70
2023/06/12 05:17:46;;;;;;;11.10;9.95;;;;;;;18.03;78.93;94402.44;5116609;28;20180;-70
2023/06/12 05:20:15;;;;;;;11.68;9.90;;;;;;;18.03;79.01;94406.03;5119120;28;20188;-70
2023/06/12 05:22:42;;;;;;;10.73;9.57;;;;;;;18.06;79.75;94401.63;5118038;28;20196;-70
2023/06/12 05:25:12;;;;;;;9.05;8.25;;;;;;;18.08;79.87;94407.56;5116872;28;20228;-70
2023/06/12 05:27:39;;;;;;;10.32;7.95;;;;;;;18.12;79.76;94404.72;5118065;28;20257;-70
2023/06/12 05:30:09;;;;;;;7.88;7.10;;;;;;;18.14;79.75;94413.47;5117953;28;20199;-71
2023/06/12 05:32:36;;;;;;;7.72;6.88;;;;;;;18.12;79.41;94410.31;5115047;28;20229;-71
2023/06/12 05:35:05;;;;;;;9.32;7.80;;;;;;;18.15;79.33;94415.84;5116429;28;20533;-71
2023/06/12 05:37:32;;;;;;;8.50;7.68;;;;;;;18.15;78.82;94418.63;5116925;28;20183;-71
2023/06/12 05:39:59;;;;;;;7.70;7.07;;;;;;;18.15;78.08;94407.47;5116782;28;20195;-71
2023/06/12 05:42:27;;;;;;;7.93;7.22;;;;;;;18.17;78.67;94413.44;5116771;28;20195;-70
2023/06/12 05:44:55;;;;;;;9.80;7.88;;;;;;;18.20;78.37;94418.19;5116754;28;20215;-70
2023/06/12 05:47:22;;;;;;;9.55;7.60;;;;;;;18.22;77.35;94412.97;5117341;28;20232;-71
2023/06/12 05:49:49;;;;;;;12.43;7.15;;;;;;;18.23;77.13;94427.72;5116710;28;20200;-70
2023/06/12 05:52:18;;;;;;;8.40;7.60;;;;;;;18.25;77.05;94417.72;5116867;28;20524;-70
2023/06/12 05:54:46;;;;;;;9.00;7.95;;;;;;;18.22;76.53;94415.75;5117219;28;20180;-70
2023/06/12 05:57:15;;;;;;;8.93;8.02;;;;;;;18.24;76.96;94424.50;5116376;28;20200;-69
2023/06/12 05:59:43;;;;;;;10.45;7.40;;;;;;;18.29;76.65;94420.47;5116221;28;20192;-69
2023/06/12 06:02:14;;;;;;;8.48;7.78;;;;;;;18.27;76.65;94409.72;5115815;28;20255;-69
2023/06/12 06:04:42;;;;;;;8.35;7.35;;;;;;;18.25;76.09;94423.28;5099138;28;20214;-69
2023/06/12 06:07:11;;;;;;;11.88;8.13;;;;;;;18.25;76.09;94419.72;5116190;28;20215;-69
2023/06/12 06:09:40;;;;;;;8.43;7.63;;;;;;;18.26;77.46;94416.53;5115866;28;20199;-71
2023/06/12 06:12:07;;;;;;;9.65;8.73;;;;;;;18.28;77.29;94419.69;5115885;28;20199;-71
2023/06/12 06:14:35;;;;;;;9.02;8.15;;;;;;;18.29;77.00;94414.88;5114369;28;20195;-71
2023/06/12 06:17:01;;;;;;;10.20;9.30;;;;;;;18.28;77.35;94411.31;5114083;28;20607;-71
2023/06/12 06:19:28;;;;;;;9.65;8.75;;;;;;;18.30;76.97;94422.06;5115237;28;20196;-71
2023/06/12 06:21:55;;;;;;;10.13;9.23;;;;;;;18.33;78.40;94414.84;5115787;28;20183;-71
2023/06/12 06:24:22;;;;;;;9.70;8.80;;;;;;;18.35;77.56;94420.81;5114706;28;20215;-71
2023/06/12 06:26:55;;;;;;;10.00;9.18;;;;;;;18.35;77.59;94418.78;5113934;28;20655;-71
2023/06/12 06:29:21;;;;;;;11.70;9.55;;;;;;;18.37;77.51;94415.56;5114026;28;20196;-71
2023/06/12 06:31:48;;;;;;;8.68;7.65;;;;;;;18.37;77.63;94421.16;5114140;28;20196;-71
2023/06/12 06:34:15;;;;;;;9.73;8.93;;;;;;;18.38;76.71;94417.19;5114284;28;20522;-70
2023/06/12 06:36:42;;;;;;;9.02;7.97;;;;;;;18.40;76.28;94409.16;5114820;28;20611;-71
2023/06/12 06:39:09;;;;;;;10.27;8.65;;;;;;;18.39;75.97;94410.38;5113857;28;20188;-71
2023/06/12 06:41:37;;;;;;;10.82;8.82;;;;;;;18.42;76.80;94420.72;5114119;28;20669;-71
2023/06/12 06:44:07;;;;;;;10.48;9.18;;;;;;;18.47;77.48;94417.44;5114040;28;20203;-71
2023/06/12 06:46:34;;;;;;;9.45;8.48;;;;;;;18.50;76.50;94420.19;5114952;28;20202;-72
2023/06/12 06:49:01;;;;;;;12.73;9.50;;;;;;;18.53;76.30;94426.94;5113860;28;20199;-71
2023/06/12 06:51:29;;;;;;;9.70;8.73;;;;;;;18.56;75.90;94422.53;5114066;28;20207;-71
2023/06/12 06:53:57;;;;;;;10.13;9.07;;;;;;;18.56;75.92;94417.72;5113869;28;20191;-72
2023/06/12 06:56:25;;;;;;;10.77;9.73;;;;;;;18.56;75.29;94417.72;5114904;28;20218;-71
2023/06/12 06:58:52;;;;;;;10.48;9.57;;;;;;;18.58;75.44;94412.50;5113898;28;20249;-73
2023/06/12 07:01:21;;;;;;;10.82;9.77;;;;;;;18.59;75.74;94405.72;5113707;28;20195;-71
2023/06/12 07:03:50;;;;;;;12.60;9.57;;;;;;;18.62;74.92;94412.44;5113433;28;20204;-71
2023/06/12 07:06:17;;;;;;;11.07;9.77;;;;;;;18.63;74.99;94412.03;5113708;28;20219;-72
2023/06/12 07:08:46;;;;;;;11.45;9.25;;;;;;;18.64;74.53;94404.44;5113755;28;20512;-70
2023/06/12 07:11:14;;;;;;;10.60;9.25;;;;;;;18.68;75.44;94410.78;5114416;28;20184;-71
2023/06/12 07:13:41;;;;;;;14.43;10.23;;;;;;;18.70;75.05;94406.34;5113227;28;20206;-71
2023/06/12 07:16:08;;;;;;;10.73;9.48;;;;;;;18.73;75.34;94408.31;5113632;28;20207;-71
2023/06/12 07:18:37;;;;;;;12.20;10.30;;;;;;;18.77;75.53;94408.25;5113722;28;20195;-71
2023/06/12 07:21:04;;;;;;;14.15;10.13;;;;;;;18.77;74.88;94408.25;5113175;28;20206;-72
2023/06/12 07:23:32;;;;;;;14.40;9.48;;;;;;;18.79;75.53;94405.84;5114753;28;20176;-71
2023/06/12 07:25:59;;;;;;;11.05;9.95;;;;;;;18.79;75.13;94408.63;5113635;28;20247;-72
2023/06/12 07:28:26;;;;;;;11.57;10.35;;;;;;;18.79;75.78;94405.06;5113497;28;20196;-72
2023/06/12 07:30:54;;;;;;;11.48;10.13;;;;;;;18.81;76.02;94409.03;5113193;28;20203;-72
2023/06/12 07:33:21;;;;;;;10.90;9.20;;;;;;;18.84;74.74;94404.56;5114335;28;20260;-71
2023/06/12 07:35:49;;;;;;;12.45;9.85;;;;;;;18.86;75.48;94410.53;5113472;28;20202;-71
2023/06/12 07:38:17;;;;;;;14.13;10.55;;;;;;;18.87;74.63;94414.91;5114308;28;20184;-71
2023/06/12 07:40:45;;;;;;;11.00;9.90;;;;;;;18.86;74.19;94408.53;5113995;28;20404;-71
2023/06/12 07:43:12;;;;;;;11.30;10.15;;;;;;;18.89;74.91;94409.69;5114166;28;20184;-71
2023/06/12 07:45:39;;;;;;;14.27;11.07;;;;;;;18.90;74.30;94412.06;5114341;28;20219;-71
2023/06/12 07:48:07;;;;;;;13.23;9.90;;;;;;;18.92;73.74;94406.06;5113983;28;20571;-72
2023/06/12 07:50:34;;;;;;;11.52;10.15;;;;;;;18.94;73.94;94409.22;5113386;28;20204;-72
2023/06/12 07:53:07;;;;;;;10.82;9.73;;;;;;;18.98;74.20;94418.31;5113999;28;20278;-71
2023/06/12 07:55:35;;;;;;;11.10;9.65;;;;;;;19.01;74.02;94417.47;5114196;28;20180;-71
2023/06/12 07:58:03;;;;;;;14.45;10.65;;;;;;;19.06;74.61;94421.78;5113253;28;20273;-71
2023/06/12 08:00:32;;;;;;;11.98;10.75;;;;;;;19.06;74.16;94416.19;5113159;28;20192;-71
2023/06/12 08:03:00;;;;;;;18.25;11.82;;;;;;;19.08;74.55;94408.97;5113133;28;20249;-72
2023/06/12 08:05:29;;;;;;;11.10;10.00;;;;;;;19.10;73.48;94409.38;5113034;28;20551;-71
2023/06/12 08:07:56;;;;;;;10.60;8.52;;;;;;;19.10;72.18;94406.56;5112963;28;20230;-71
2023/06/12 08:10:26;;;;;;;9.95;8.88;;;;;;;19.12;72.10;94412.50;5112892;28;20200;-71
2023/06/12 08:12:53;;;;;;;9.52;8.50;;;;;;;19.12;72.58;94406.91;5113127;28;20187;-71
2023/06/12 08:15:20;;;;;;;9.57;8.55;;;;;;;19.15;73.16;94408.09;5112965;28;20207;-72
2023/06/12 08:17:47;;;;;;;10.77;9.10;;;;;;;19.16;72.61;94407.66;5113066;28;20607;-71
2023/06/12 08:20:17;;;;;;;9.98;8.77;;;;;;;19.19;72.73;94408.81;5096096;28;20191;-71
2023/06/12 08:22:46;;;;;;;8.30;6.97;;;;;;;19.20;71.64;94410.38;5112749;28;20195;-70
2023/06/12 08:25:14;;;;;;;8.77;7.25;;;;;;;19.21;71.03;94415.56;5112578;28;20295;-71
2023/06/12 08:27:45;;;;;;;8.75;7.35;;;;;;;19.23;71.22;94409.53;5113674;28;20260;-71
2023/06/12 08:30:14;;;;;;;9.77;7.40;;;;;;;19.23;71.62;94409.53;5112853;28;20200;-72
2023/06/12 08:32:41;;;;;;;10.30;7.88;;;;;;;19.25;71.40;94412.72;5113843;28;20184;-70
2023/06/12 08:35:08;;;;;;;8.20;7.40;;;;;;;19.26;71.76;94408.69;5113807;28;20187;-70
2023/06/12 08:37:35;;;;;;;12.45;7.40;;;;;;;19.31;72.66;94408.19;5113646;28;20210;-71
2023/06/12 08:40:02;;;;;;;9.10;6.95;;;;;;;19.35;71.45;94416.53;5115887;28;20211;-71
2023/06/12 08:42:32;;;;;;;9.13;7.53;;;;;;;19.36;71.00;94415.34;5116315;28;20203;-71
2023/06/12 08:45:06;;;;;;;7.97;6.55;;;;;;;19.35;70.90;94413.72;5116270;28;20598;-72
2023/06/12 08:47:35;;;;;;;8.27;6.55;;;;;;;19.33;71.31;94419.75;5117186;28;20188;-71
2023/06/12 08:50:03;;;;;;;7.57;6.15;;;;;;;19.30;71.23;94419.81;5117329;28;20171;-72
2023/06/12 08:52:32;;;;;;;6.72;6.07;;;;;;;19.24;71.71;94417.53;5116304;28;20202;-72
2023/06/12 08:54:59;;;;;;;6.45;5.85;;;;;;;19.22;72.14;94421.94;5115999;28;20187;-72
2023/06/12 08:57:31;;;;;;;6.97;5.60;;;;;;;19.20;73.06;94422.34;5117266;28;20180;-72
2023/06/12 08:59:58;;;;;;;7.30;6.57;;;;;;;19.21;73.54;94418.38;5116916;28;20245;-72
2023/06/12 09:02:28;;;;;;;7.18;6.47;;;;;;;19.23;74.36;94415.13;5116790;28;20566;-72
2023/06/12 09:05:01;;;;;;;9.10;7.93;;;;;;;19.24;76.13;94420.31;5117016;28;20180;-71
2023/06/12 09:07:30;;;;;;;7.68;6.85;;;;;;;19.24;75.32;94420.31;5116727;28;20200;-72
2023/06/12 09:09:57;;;;;;;7.78;7.07;;;;;;;19.23;75.20;94415.91;5116080;28;20203;-71
2023/06/12 09:12:23;;;;;;;7.55;6.75;;;;;;;19.22;74.36;94419.94;5116883;28;20248;-71
2023/06/12 09:14:50;;;;;;;7.43;6.72;;;;;;;19.22;73.16;94408.75;5115709;28;20206;-72
2023/06/12 09:17:19;;;;;;;8.73;6.93;;;;;;;19.24;74.77;94411.09;5115829;28;20198;-72
2023/06/12 09:19:49;;;;;;;7.93;7.18;;;;;;;19.24;74.82;94406.34;5116744;28;20264;-72
2023/06/12 09:22:17;;;;;;;7.32;6.68;;;;;;;19.26;74.50;94399.53;5116426;28;20257;-71
2023/06/12 09:24:46;;;;;;;9.52;7.13;;;;;;;19.26;74.61;94399.53;5115554;28;20188;-71
2023/06/12 09:27:15;;;;;;;9.60;8.25;;;;;;;19.25;74.93;94398.75;5115538;28;20191;-72
2023/06/12 09:29:42;;;;;;;9.18;8.00;;;;;;;19.28;75.61;94402.66;5115569;28;20192;-72
2023/06/12 09:32:28;;;;;;;8.98;8.07;;;;;;;19.28;75.04;94391.47;5115515;28;20203;-72
2023/06/12 09:35:00;;;;;;;9.63;7.72;;;;;;;19.28;75.46;94389.50;5115461;28;20198;-72
2023/06/12 09:37:28;;;;;;;9.15;8.25;;;;;;;19.30;75.66;94386.28;5115415;28;20257;-71
2023/06/12 09:40:11;;;;;;;9.88;8.57;;;;;;;19.30;76.06;94392.66;5115318;28;20188;-72
2023/06/12 09:42:38;;;;;;;9.55;8.68;;;;;;;19.32;76.21;94386.63;5115561;28;20230;-71
2023/06/12 09:45:12;;;;;;;9.45;8.45;;;;;;;19.30;76.15;94383.47;5114841;28;20200;-71
2023/06/12 09:47:46;;;;;;;9.85;8.85;;;;;;;19.32;76.32;94381.03;5116009;28;20183;-71
2023/06/12 09:50:15;;;;;;;9.27;8.18;;;;;;;19.36;76.46;94374.19;5115596;28;20196;-71
2023/06/12 09:52:44;;;;;;;10.18;9.13;;;;;;;19.40;77.16;94371.31;5115175;28;20191;-71
2023/06/12 09:55:14;;;;;;;9.30;8.32;;;;;;;19.41;76.53;94364.50;5097800;28;20199;-71
2023/06/12 09:57:43;;;;;;;9.45;8.43;;;;;;;19.43;77.52;94373.25;5115986;28;20195;-71
2023/06/12 10:00:15;;;;;;;9.23;8.32;;;;;;;19.45;77.61;94371.59;5115718;28;20207;-71
2023/06/12 10:02:50;;;;;;;9.38;8.45;;;;;;;19.44;78.89;94372.03;5114973;28;20203;-71
2023/06/12 10:05:22;;;;;;;13.27;9.18;;;;;;;19.43;76.50;94370.47;5114918;28;20301;-72
2023/06/12 10:07:54;;;;;;;10.38;8.40;;;;;;;19.40;76.64;94363.72;5116819;28;20281;-72
2023/06/12 10:10:22;;;;;;;10.23;9.13;;;;;;;19.39;77.29;94373.31;5116585;28;20184;-71
2023/06/12 10:12:51;;;;;;;10.15;8.90;;;;;;;19.41;78.10;94375.69;5115335;28;20619;-72
2023/06/12 10:15:18;;;;;;;10.07;9.05;;;;;;;19.40;77.94;94366.50;5116131;28;20198;-71
2023/06/12 10:17:45;;;;;;;10.30;8.32;;;;;;;19.41;74.88;94372.88;5115633;28;20221;-71
2023/06/12 10:20:17;;;;;;;10.80;8.15;;;;;;;19.40;73.09;94360.13;5115422;28;20194;-72
2023/06/12 10:22:47;;;;;;;8.57;7.60;;;;;;;19.44;72.83;94367.22;5115870;28;20180;-71
2023/06/12 10:25:14;;;;;;;7.90;6.85;;;;;;;19.45;71.69;94368.03;5114539;28;20231;-72
2023/06/12 10:27:42;;;;;;;8.82;7.88;;;;;;;19.46;72.63;94364.00;5115903;28;20190;-71
2023/06/12 10:30:13;;;;;;;10.95;9.50;;;;;;;19.48;74.35;94355.97;5116120;28;20282;-71
2023/06/12 10:32:43;;;;;;;11.35;9.05;;;;;;;19.51;74.61;94357.13;5115551;28;20222;-71
2023/06/12 10:35:10;;;;;;;9.85;8.80;;;;;;;19.51;74.93;94348.75;5115186;28;20195;-70
2023/06/12 10:37:39;;;;;;;9.48;8.57;;;;;;;19.52;75.03;94348.31;5114166;28;20188;-72
2023/06/12 10:40:15;;;;;;;11.32;8.52;;;;;;;19.52;74.49;94345.50;5114236;28;20285;-71
2023/06/12 10:42:44;;;;;;;9.68;8.73;;;;;;;19.51;73.77;94351.56;5115148;28;20265;-71
2023/06/12 10:45:19;;;;;;;9.57;8.10;;;;;;;19.52;73.44;94350.31;5113505;28;20223;-70
2023/06/12 10:48:17;;;;;;;9.30;8.30;;;;;;;19.54;74.23;94347.91;5114139;28;20279;-70
2023/06/12 10:50:46;;;;;;;8.27;7.55;;;;;;;19.57;74.45;94349.81;5113963;28;20294;-70
2023/06/12 10:53:15;;;;;;;8.13;7.22;;;;;;;19.61;76.11;94342.97;5113884;28;20195;-71
2023/06/12 10:55:45;;;;;;;10.55;7.60;;;;;;;19.58;73.41;94343.81;5113527;28;20196;-71
2023/06/12 10:58:15;;;;;;;7.97;7.18;;;;;;;19.58;73.39;94345.81;5113382;28;20203;-71
2023/06/12 11:00:49;;;;;;;7.63;6.85;;;;;;;19.59;71.47;94339.00;5113313;28;20282;-71
2023/06/12 11:03:21;;;;;;;10.93;6.93;;;;;;;19.62;71.43;94338.97;5114561;28;20188;-71
2023/06/12 11:05:50;;;;;;;9.23;7.00;;;;;;;19.67;71.47;94332.06;5114359;28;20207;-71
2023/06/12 11:08:18;;;;;;;8.52;6.63;;;;;;;19.75;70.31;94329.94;5113673;28;20298;-71
2023/06/12 11:10:49;;;;;;;7.88;6.47;;;;;;;19.82;69.12;94326.97;5113610;28;20191;-71
2023/06/12 11:13:16;;;;;;;8.15;6.55;;;;;;;19.85;69.18;94328.94;5114306;28;20192;-71
2023/06/12 11:15:44;;;;;;;8.85;6.88;;;;;;;19.90;69.36;94325.63;5114317;28;20172;-71
2023/06/12 11:18:12;;;;;;;8.75;7.40;;;;;;;19.91;68.32;94318.81;5114602;28;20275;-71
2023/06/12 11:20:38;;;;;;;7.95;6.88;;;;;;;19.93;69.02;94310.75;5114215;28;20191;-71
2023/06/12 11:23:06;;;;;;;6.68;5.97;;;;;;;19.95;68.63;94320.31;5113483;28;20208;-72
2023/06/12 11:25:33;;;;;;;6.72;5.82;;;;;;;19.98;67.77;94326.28;5113121;28;20223;-71
2023/06/12 11:28:03;;;;;;;6.30;5.68;;;;;;;19.98;66.67;94320.69;5113508;28;20200;-71
2023/06/12 11:30:30;;;;;;;5.80;5.30;;;;;;;19.96;66.22;94321.88;5113321;28;20211;-71
2023/06/12 11:32:57;;;;;;;6.55;5.88;;;;;;;19.99;69.09;94323.03;5113030;28;20204;-71
2023/06/12 11:35:26;;;;;;;5.75;5.22;;;;;;;20.00;67.08;94326.63;5113373;28;20207;-71